Time;durP1;ratioP1;P1;durP2;ratioP2;P2;SDS_P1;SDS_P2;PMS_P1;PMS_P2;Temp;Humidity;BMP_temperature;BMP_pressure;BME280_temperature;BME280_humidity;BME280_pressure;Samples;Min_cycle;Max_cycle;Signal;HPM_P1;HPM_P2
2021/03/25 00:00:24;;;;;;;15.57;9.57;;;;;13.10;101863.00;;;;5070665;28;20195;-77
2021/03/25 00:02:51;;;;;;;14.52;8.93;;;;;13.10;101861.00;;;;5076312;28;20716;-78
2021/03/25 00:05:20;;;;;;;16.35;10.70;;;;;13.10;101856.00;;;;5087780;28;20205;-78
2021/03/25 00:07:47;;;;;;;19.15;10.70;;;;;13.20;101863.00;;;;5088603;28;20190;-78
2021/03/25 00:10:23;;;;;;;16.52;10.32;;;;;13.10;101869.00;;;;5084802;28;20194;-77
2021/03/25 00:12:50;;;;;;;16.63;10.35;;;;;13.20;101861.00;;;;5078472;28;20323;-78
2021/03/25 00:15:19;;;;;;;19.08;10.90;;;;;13.20;101855.00;;;;5088138;28;20598;-77
2021/03/25 00:17:46;;;;;;;17.60;11.13;;;;;13.20;101856.00;;;;5083165;28;20382;-77
2021/03/25 00:20:14;;;;;;;19.13;11.15;;;;;13.20;101852.00;;;;5069703;28;20607;-78
2021/03/25 00:22:41;;;;;;;17.60;11.85;;;;;13.20;101858.00;;;;5074705;28;20617;-78
2021/03/25 00:25:12;;;;;;;20.60;11.48;;;;;13.20;101857.00;;;;5083324;28;20198;-77
2021/03/25 00:27:39;;;;;;;24.88;12.85;;;;;13.20;101865.00;;;;5087404;28;20210;-77
2021/03/25 00:30:07;;;;;;;20.33;11.50;;;;;13.20;101873.00;;;;5083929;28;20567;-77
2021/03/25 00:32:35;;;;;;;28.58;13.63;;;;;13.20;101873.00;;;;5088631;28;20718;-78
2021/03/25 00:35:02;;;;;;;18.10;11.52;;;;;13.30;101863.00;;;;5077980;28;20207;-77
2021/03/25 00:37:29;;;;;;;22.08;12.88;;;;;13.30;101862.00;;;;5087317;28;20198;-77
2021/03/25 00:39:56;;;;;;;20.15;11.95;;;;;13.30;101858.00;;;;5088573;28;20683;-78
2021/03/25 00:42:23;;;;;;;19.02;11.80;;;;;13.30;101854.00;;;;5089216;28;20271;-77
2021/03/25 00:44:50;;;;;;;19.17;11.70;;;;;13.30;101855.00;;;;5088847;28;20194;-77
2021/03/25 00:47:16;;;;;;;19.58;12.00;;;;;13.30;101846.00;;;;5077986;28;20202;-77
2021/03/25 00:49:44;;;;;;;19.52;11.68;;;;;13.30;101843.00;;;;5087837;28;20818;-78
2021/03/25 00:52:11;;;;;;;21.88;12.45;;;;;13.30;101857.00;;;;5082548;28;20195;-78
2021/03/25 00:54:37;;;;;;;22.48;12.68;;;;;13.30;101852.00;;;;5082150;28;20236;-78
2021/03/25 00:57:06;;;;;;;18.05;11.43;;;;;13.30;101840.00;;;;5086530;28;20793;-78
2021/03/25 00:59:32;;;;;;;22.73;12.65;;;;;13.30;101841.00;;;;5089592;28;20198;-77
2021/03/25 01:02:00;;;;;;;20.45;11.63;;;;;13.40;101845.00;;;;5089003;28;20634;-77
2021/03/25 01:04:26;;;;;;;18.85;12.27;;;;;13.40;101861.00;;;;5087174;28;20198;-78
2021/03/25 01:06:54;;;;;;;20.83;12.57;;;;;13.40;101849.00;;;;5087893;28;20746;-78
2021/03/25 01:09:24;;;;;;;18.70;11.25;;;;;13.40;101848.00;;;;5084031;28;20677;-78
2021/03/25 01:11:52;;;;;;;17.20;10.82;;;;;13.40;101851.00;;;;5080602;28;20846;-77
2021/03/25 01:14:22;;;;;;;20.33;13.18;;;;;13.40;101855.00;;;;5088858;28;20572;-78
2021/03/25 01:16:50;;;;;;;20.83;12.00;;;;;13.50;101847.00;;;;5087622;28;20205;-77
2021/03/25 01:19:23;;;;;;;19.42;12.48;;;;;13.50;101842.00;;;;5069655;28;20545;-78
2021/03/25 01:21:50;;;;;;;23.27;12.38;;;;;13.50;101847.00;;;;5069003;28;20233;-77
2021/03/25 01:24:17;;;;;;;20.08;12.55;;;;;13.50;101847.00;;;;5073310;28;20210;-78
2021/03/25 01:26:44;;;;;;;19.33;11.70;;;;;13.50;101843.00;;;;5086672;28;20206;-78
2021/03/25 01:29:11;;;;;;;21.05;12.43;;;;;13.60;101848.00;;;;5088676;28;20213;-78
2021/03/25 01:31:38;;;;;;;19.90;12.23;;;;;13.60;101839.00;;;;5088018;28;20722;-77
2021/03/25 01:34:07;;;;;;;20.50;12.50;;;;;13.60;101830.00;;;;5084141;28;20215;-78
2021/03/25 01:36:34;;;;;;;19.83;12.57;;;;;13.60;101845.00;;;;5074470;28;20194;-78
2021/03/25 01:39:01;;;;;;;20.30;11.85;;;;;13.60;101840.00;;;;5084236;28;20211;-78
2021/03/25 01:41:30;;;;;;;21.15;11.68;;;;;13.70;101841.00;;;;5079885;28;20218;-77
2021/03/25 01:43:57;;;;;;;19.70;11.93;;;;;13.70;101836.00;;;;5078999;28;20648;-78
2021/03/25 01:46:27;;;;;;;19.88;12.10;;;;;13.70;101836.00;;;;5073797;28;20210;-77
2021/03/25 01:48:56;;;;;;;19.90;12.20;;;;;13.70;101829.00;;;;5086053;28;20221;-78
2021/03/25 01:51:41;;;;;;;23.90;13.18;;;;;13.60;101823.00;;;;5075151;28;20195;-78
2021/03/25 01:54:38;;;;;;;19.98;13.55;;;;;13.60;101829.00;;;;5068685;28;20660;-78
2021/03/25 01:57:33;;;;;;;17.33;11.68;;;;;13.70;101831.00;;;;5075623;28;20198;-77
2021/03/25 02:00:23;;;;;;;20.52;11.82;;;;;13.60;101830.00;;;;5074963;28;20209;-77
2021/03/25 02:03:03;;;;;;;17.52;12.05;;;;;13.70;101823.00;;;;5078232;28;20221;-78
2021/03/25 02:05:39;;;;;;;20.60;12.80;;;;;13.70;101813.00;;;;5084379;28;20194;-78
2021/03/25 02:08:14;;;;;;;20.15;12.27;;;;;13.70;101822.00;;;;5086973;28;20203;-78
2021/03/25 02:10:51;;;;;;;22.77;13.73;;;;;13.70;101818.00;;;;5085696;28;20573;-78
2021/03/25 02:13:25;;;;;;;20.15;13.75;;;;;13.70;101819.00;;;;5077155;28;20203;-78
2021/03/25 02:16:02;;;;;;;20.10;12.43;;;;;13.70;101815.00;;;;5085529;28;20189;-78
2021/03/25 02:18:36;;;;;;;21.05;12.40;;;;;13.60;101815.00;;;;5086413;28;20193;-78
2021/03/25 02:21:45;;;;;;;23.25;12.48;;;;;13.50;101822.00;;;;5088116;28;20198;-78
2021/03/25 02:24:35;;;;;;;19.17;11.90;;;;;13.40;101819.00;;;;5086439;28;20202;-78
2021/03/25 02:27:20;;;;;;;19.13;12.02;;;;;13.50;101819.00;;;;5078773;28;20244;-78
2021/03/25 02:29:56;;;;;;;22.58;13.55;;;;;13.40;101822.00;;;;5077269;28;20611;-78
2021/03/25 02:32:29;;;;;;;21.08;12.45;;;;;13.40;101814.00;;;;5073623;28;20206;-78
2021/03/25 02:34:59;;;;;;;21.42;12.15;;;;;13.40;101813.00;;;;5079481;28;20198;-78
2021/03/25 02:37:28;;;;;;;21.27;12.52;;;;;13.40;101817.00;;;;5072743;28;20194;-78
2021/03/25 02:40:01;;;;;;;19.95;12.60;;;;;13.30;101824.00;;;;5087447;28;20226;-78
2021/03/25 02:42:33;;;;;;;19.83;11.65;;;;;13.30;101826.00;;;;5087495;28;20218;-78
2021/03/25 02:45:06;;;;;;;21.60;13.25;;;;;13.20;101823.00;;;;5087527;28;20203;-78
2021/03/25 02:47:37;;;;;;;20.45;12.45;;;;;13.20;101823.00;;;;5084539;28;20223;-78
2021/03/25 02:50:12;;;;;;;21.40;13.32;;;;;13.20;101823.00;;;;5069577;28;20195;-78
2021/03/25 02:52:42;;;;;;;21.15;13.45;;;;;13.20;101825.00;;;;5072408;28;20190;-78
2021/03/25 02:55:12;;;;;;;20.85;13.68;;;;;13.10;101827.00;;;;5087954;28;20206;-78
2021/03/25 02:57:48;;;;;;;21.63;12.48;;;;;13.10;101822.00;;;;5087048;28;20194;-78
2021/03/25 03:00:19;;;;;;;19.00;12.93;;;;;13.10;101813.00;;;;5083877;28;20220;-78
2021/03/25 03:02:51;;;;;;;23.15;13.23;;;;;13.00;101817.00;;;;5090766;28;20214;-77
2021/03/25 03:05:20;;;;;;;24.05;14.57;;;;;13.00;101814.00;;;;5084105;28;20245;-77
2021/03/25 03:07:55;;;;;;;23.13;14.25;;;;;12.90;101810.00;;;;5086684;28;20194;-77
2021/03/25 03:10:26;;;;;;;21.90;13.45;;;;;12.90;101817.00;;;;5082712;28;20259;-78
2021/03/25 03:12:56;;;;;;;22.08;13.13;;;;;12.90;101814.00;;;;5090680;28;20210;-78
2021/03/25 03:15:25;;;;;;;21.60;13.02;;;;;12.90;101808.00;;;;5090199;28;20190;-78
2021/03/25 03:18:01;;;;;;;22.38;13.45;;;;;12.80;101813.00;;;;5089461;28;20198;-78
2021/03/25 03:20:32;;;;;;;20.75;12.85;;;;;12.80;101809.00;;;;5071645;28;20706;-78
2021/03/25 03:22:59;;;;;;;22.17;12.98;;;;;12.80;101800.00;;;;5085572;28;20233;-78
2021/03/25 03:25:28;;;;;;;26.35;14.23;;;;;12.80;101810.00;;;;5081304;28;20198;-78
2021/03/25 03:28:01;;;;;;;21.05;13.43;;;;;12.80;101815.00;;;;5084438;28;20187;-78
2021/03/25 03:30:32;;;;;;;21.23;13.57;;;;;12.80;101804.00;;;;5080948;28;20192;-78
2021/03/25 03:33:04;;;;;;;22.65;13.23;;;;;12.80;101805.00;;;;5073833;28;20206;-78
2021/03/25 03:35:36;;;;;;;25.77;14.98;;;;;12.90;101808.00;;;;5085738;28;20195;-77
2021/03/25 03:38:10;;;;;;;22.02;13.48;;;;;12.80;101801.00;;;;5090076;28;20719;-77
2021/03/25 03:40:40;;;;;;;26.20;14.85;;;;;12.90;101797.00;;;;5090222;28;20209;-77
2021/03/25 03:43:11;;;;;;;24.83;13.77;;;;;12.90;101800.00;;;;5090214;28;20218;-77
2021/03/25 03:45:42;;;;;;;24.48;12.70;;;;;12.90;101789.00;;;;5090325;28;20190;-77
2021/03/25 03:48:18;;;;;;;21.20;14.45;;;;;12.90;101792.00;;;;5089098;28;20229;-78
2021/03/25 03:50:48;;;;;;;21.95;14.23;;;;;12.90;101785.00;;;;5090220;28;20194;-77
2021/03/25 03:53:15;;;;;;;20.30;13.32;;;;;13.00;101789.00;;;;5082280;28;20272;-78
2021/03/25 03:55:42;;;;;;;22.77;14.25;;;;;13.00;101783.00;;;;5069684;28;20191;-78
2021/03/25 03:58:16;;;;;;;27.27;15.70;;;;;12.90;101787.00;;;;5083360;28;20255;-77
2021/03/25 04:00:46;;;;;;;24.67;14.48;;;;;13.00;101787.00;;;;5088511;28;20202;-78
2021/03/25 04:03:23;;;;;;;23.73;13.52;;;;;13.00;101805.00;;;;5083614;28;20288;-78
2021/03/25 04:05:55;;;;;;;26.55;15.65;;;;;12.90;101812.00;;;;5075955;28;20205;-77
2021/03/25 04:08:29;;;;;;;23.15;14.10;;;;;12.90;101805.00;;;;5082564;28;20247;-78
2021/03/25 04:11:02;;;;;;;26.50;14.48;;;;;12.90;101810.00;;;;5089680;28;20186;-78
2021/03/25 04:13:32;;;;;;;23.52;14.32;;;;;13.00;101809.00;;;;5072301;28;20195;-78
2021/03/25 04:16:00;;;;;;;24.27;13.25;;;;;13.00;101811.00;;;;5078080;28;20668;-78
2021/03/25 04:18:34;;;;;;;24.42;14.57;;;;;13.00;101812.00;;;;5089601;28;20202;-78
2021/03/25 04:21:06;;;;;;;24.45;13.90;;;;;13.00;101806.00;;;;5087753;28;20266;-78
2021/03/25 04:23:35;;;;;;;19.50;12.63;;;;;13.00;101811.00;;;;5088236;28;20190;-78
2021/03/25 04:26:09;;;;;;;24.95;15.13;;;;;13.00;101811.00;;;;5088424;28;20194;-78
2021/03/25 04:28:40;;;;;;;25.90;14.18;;;;;13.10;101801.00;;;;5083381;28;20251;-78
2021/03/25 04:31:08;;;;;;;24.48;14.55;;;;;13.10;101792.00;;;;5074691;28;20687;-78
2021/03/25 04:33:38;;;;;;;24.15;13.05;;;;;13.10;101794.00;;;;5076822;28;20252;-78
2021/03/25 04:36:10;;;;;;;24.85;15.00;;;;;13.10;101796.00;;;;5082400;28;20195;-78
2021/03/25 04:38:40;;;;;;;27.30;15.05;;;;;13.10;101796.00;;;;5076359;28;20222;-78
2021/03/25 04:41:08;;;;;;;25.23;14.65;;;;;13.20;101790.00;;;;5088694;28;20198;-78
2021/03/25 04:43:36;;;;;;;25.50;15.07;;;;;13.20;101792.00;;;;5089485;28;20236;-78
2021/03/25 04:46:21;;;;;;;23.88;13.90;;;;;13.10;101787.00;;;;5089544;28;20683;-78
2021/03/25 04:48:49;;;;;;;24.02;13.38;;;;;13.20;101795.00;;;;5084681;28;20757;-78
2021/03/25 04:51:19;;;;;;;24.33;13.65;;;;;13.20;101792.00;;;;5089150;28;20202;-78
2021/03/25 04:53:48;;;;;;;21.65;12.68;;;;;13.20;101799.00;;;;5076540;28;20723;-78
2021/03/25 04:56:18;;;;;;;22.20;14.05;;;;;13.20;101785.00;;;;5070442;28;20203;-78
2021/03/25 04:58:50;;;;;;;27.35;14.60;;;;;13.20;101777.00;;;;5078457;28;20668;-78
2021/03/25 05:01:20;;;;;;;25.70;14.80;;;;;13.20;101770.00;;;;5089018;28;20248;-78
2021/03/25 05:03:49;;;;;;;20.95;12.88;;;;;13.30;101779.00;;;;5088396;28;20202;-78
2021/03/25 05:06:19;;;;;;;24.30;14.52;;;;;13.30;101781.00;;;;5086902;28;20699;-78
2021/03/25 05:08:47;;;;;;;25.42;14.98;;;;;13.30;101768.00;;;;5086844;28;20190;-78
2021/03/25 05:11:18;;;;;;;25.80;14.98;;;;;13.30;101772.00;;;;5069077;28;20572;-78
2021/03/25 05:13:46;;;;;;;23.88;13.63;;;;;13.30;101773.00;;;;5083585;28;20198;-78
2021/03/25 05:16:24;;;;;;;23.50;14.20;;;;;13.30;101766.00;;;;5088650;28;20214;-78
2021/03/25 05:19:06;;;;;;;22.70;14.10;;;;;13.30;101774.00;;;;5083513;28;20206;-78
2021/03/25 05:21:41;;;;;;;25.80;14.35;;;;;13.30;101771.00;;;;5067783;28;20222;-78
2021/03/25 05:24:18;;;;;;;25.95;14.05;;;;;13.30;101772.00;;;;5078858;28;20194;-77
2021/03/25 05:26:50;;;;;;;24.17;14.07;;;;;13.30;101772.00;;;;5087574;28;20213;-78
2021/03/25 05:29:18;;;;;;;22.95;14.35;;;;;13.30;101764.00;;;;5087720;28;20194;-78
2021/03/25 05:31:47;;;;;;;25.00;14.15;;;;;13.30;101762.00;;;;5087880;28;20251;-78
2021/03/25 05:34:15;;;;;;;23.67;15.25;;;;;13.30;101767.00;;;;5082437;28;20575;-78
2021/03/25 05:36:42;;;;;;;24.48;14.85;;;;;13.30;101773.00;;;;5086726;28;20194;-78
2021/03/25 05:39:10;;;;;;;24.50;14.35;;;;;13.30;101775.00;;;;5087808;28;20235;-78
2021/03/25 05:41:44;;;;;;;27.83;15.95;;;;;13.30;101777.00;;;;5070112;28;20724;-78
2021/03/25 05:44:36;;;;;;;27.13;15.20;;;;;13.20;101774.00;;;;5087279;28;20206;-78
2021/03/25 05:47:22;;;;;;;22.85;14.30;;;;;13.20;101777.00;;;;5080090;28;20198;-78
2021/03/25 05:50:02;;;;;;;25.38;14.70;;;;;13.20;101772.00;;;;5080718;28;20222;-78
2021/03/25 05:52:40;;;;;;;22.10;14.65;;;;;13.30;101766.00;;;;5076428;28;20198;-78
2021/03/25 05:55:23;;;;;;;26.77;15.32;;;;;13.20;101780.00;;;;5068246;28;20217;-78
2021/03/25 05:58:10;;;;;;;22.38;13.18;;;;;13.20;101781.00;;;;5070817;28;20190;-77
2021/03/25 06:00:46;;;;;;;23.23;13.27;;;;;13.20;101791.00;;;;5076887;28;20240;-78
2021/03/25 06:03:16;;;;;;;23.90;15.02;;;;;13.10;101787.00;;;;5077481;28;20222;-77
2021/03/25 06:05:49;;;;;;;28.52;14.48;;;;;13.10;101791.00;;;;5074122;28;20202;-78
2021/03/25 06:08:36;;;;;;;25.80;13.88;;;;;13.00;101783.00;;;;5071032;28;20683;-78
2021/03/25 06:11:15;;;;;;;23.67;14.32;;;;;13.00;101776.00;;;;5069795;28;20191;-78
2021/03/25 06:14:02;;;;;;;25.05;13.55;;;;;13.00;101779.00;;;;5081749;28;20201;-78
2021/03/25 06:16:56;;;;;;;24.58;14.18;;;;;12.90;101783.00;;;;5077859;28;20210;-78
2021/03/25 06:19:45;;;;;;;25.42;14.05;;;;;12.90;101783.00;;;;5076425;28;20202;-77
2021/03/25 06:22:19;;;;;;;27.42;14.95;;;;;13.00;101771.00;;;;5083732;28;20218;-78
2021/03/25 06:25:16;;;;;;;23.75;14.45;;;;;13.00;101773.00;;;;5085239;28;20258;-78
2021/03/25 06:28:17;;;;;;;26.52;14.27;;;;;13.10;101767.00;;;;5080382;28;20280;-78
2021/03/25 06:30:51;;;;;;;25.10;14.27;;;;;13.10;101747.00;;;;5041822;28;20195;-77
2021/03/25 06:33:23;;;;;;;25.73;13.80;;;;;13.10;101759.00;;;;5084770;28;20182;-77
2021/03/25 06:35:52;;;;;;;25.13;15.10;;;;;13.10;101774.00;;;;5091435;28;20714;-78
2021/03/25 06:38:25;;;;;;;25.27;14.57;;;;;13.10;101786.00;;;;5090355;28;20267;-78
2021/03/25 06:40:58;;;;;;;25.90;14.32;;;;;13.10;101799.00;;;;5085478;28;20548;-78
2021/03/25 06:43:29;;;;;;;22.90;14.98;;;;;13.10;101808.00;;;;5075473;28;20752;-77
2021/03/25 06:46:01;;;;;;;26.83;15.20;;;;;13.10;101818.00;;;;5091282;28;20194;-78
2021/03/25 06:48:36;;;;;;;26.83;15.48;;;;;13.10;101809.00;;;;5091274;28;20776;-80
2021/03/25 06:51:20;;;;;;;24.23;15.05;;;;;13.20;101810.00;;;;5081467;28;20205;-78
2021/03/25 06:53:50;;;;;;;24.52;15.30;;;;;13.20;101812.00;;;;5077695;28;20587;-78
2021/03/25 06:56:31;;;;;;;29.75;15.43;;;;;13.30;101815.00;;;;5074590;28;20206;-77
2021/03/25 06:59:00;;;;;;;23.17;14.73;;;;;13.40;101810.00;;;;5083123;28;20232;-78
2021/03/25 07:01:32;;;;;;;23.73;14.30;;;;;13.40;101813.00;;;;5080444;28;20217;-78
2021/03/25 07:04:02;;;;;;;28.40;15.57;;;;;13.50;101821.00;;;;5082822;28;20206;-78
2021/03/25 07:06:33;;;;;;;29.50;14.45;;;;;13.50;101815.00;;;;5079462;28;20207;-78
2021/03/25 07:09:00;;;;;;;27.77;15.75;;;;;13.60;101820.00;;;;5081488;28;20211;-78
2021/03/25 07:11:29;;;;;;;24.15;13.90;;;;;13.60;101822.00;;;;5079877;28;20209;-77
2021/03/25 07:14:02;;;;;;;26.23;16.42;;;;;13.60;101815.00;;;;5089325;28;20198;-80
2021/03/25 07:16:31;;;;;;;24.98;15.20;;;;;13.70;101818.00;;;;5071540;28;20202;-80
2021/03/25 07:19:01;;;;;;;31.85;15.80;;;;;13.70;101816.00;;;;5086678;28;20194;-80
2021/03/25 07:21:46;;;;;;;27.02;14.13;;;;;13.70;101819.00;;;;5074249;28;20202;-79
2021/03/25 07:24:32;;;;;;;25.90;14.75;;;;;13.80;101815.00;;;;5077870;28;20198;-80
2021/03/25 07:27:02;;;;;;;26.40;13.68;;;;;14.00;101824.00;;;;5087786;28;20255;-80
2021/03/25 07:29:34;;;;;;;22.92;14.73;;;;;14.10;101823.00;;;;5074201;28;20203;-80
2021/03/25 07:32:27;;;;;;;29.75;16.98;;;;;14.10;101820.00;;;;5074213;28;20286;-80
2021/03/25 07:34:59;;;;;;;27.23;16.20;;;;;14.30;101820.00;;;;5082721;28;20260;-80
2021/03/25 07:37:35;;;;;;;25.13;15.15;;;;;14.20;101818.00;;;;5084440;28;20194;-78
2021/03/25 07:40:06;;;;;;;26.85;15.07;;;;;14.40;101824.00;;;;5089835;28;20206;-78
2021/03/25 07:42:36;;;;;;;26.48;15.60;;;;;14.40;101823.00;;;;5082717;28;20778;-78
2021/03/25 07:45:22;;;;;;;24.40;15.40;;;;;14.40;101822.00;;;;5081985;28;20206;-78
2021/03/25 07:47:50;;;;;;;24.98;14.25;;;;;14.60;101829.00;;;;5088718;28;20206;-80
2021/03/25 07:50:29;;;;;;;26.58;15.60;;;;;14.60;101832.00;;;;5089457;28;20245;-79
2021/03/25 07:52:57;;;;;;;26.80;15.43;;;;;14.70;101831.00;;;;5087886;28;20194;-80
2021/03/25 07:55:30;;;;;;;28.08;16.02;;;;;14.80;101826.00;;;;5083365;28;20719;-79
2021/03/25 07:57:58;;;;;;;21.38;13.88;;;;;14.90;101831.00;;;;5072725;28;20284;-79
2021/03/25 08:00:29;;;;;;;25.13;15.10;;;;;14.90;101835.00;;;;5082963;28;20201;-79
2021/03/25 08:03:11;;;;;;;23.52;15.13;;;;;14.80;101829.00;;;;5086130;28;20218;-79
2021/03/25 08:05:39;;;;;;;22.58;14.60;;;;;15.00;101844.00;;;;5084634;28;20206;-78
2021/03/25 08:08:18;;;;;;;22.33;14.82;;;;;15.00;101839.00;;;;5089854;28;20210;-79
2021/03/25 08:10:47;;;;;;;22.00;14.43;;;;;15.10;101833.00;;;;5073919;28;20195;-80
2021/03/25 08:13:19;;;;;;;29.23;14.38;;;;;15.20;101826.00;;;;5086068;28;20346;-79
2021/03/25 08:15:48;;;;;;;22.05;14.52;;;;;15.40;101830.00;;;;5087697;28;20240;-79
2021/03/25 08:18:34;;;;;;;29.33;15.90;;;;;15.40;101837.00;;;;5089124;28;20221;-79
2021/03/25 08:21:19;;;;;;;20.63;14.27;;;;;15.60;101835.00;;;;5087635;28;20205;-79
2021/03/25 08:24:06;;;;;;;25.50;14.65;;;;;15.70;101857.00;;;;5083886;28;20759;-78
2021/03/25 08:26:48;;;;;;;19.15;13.45;;;;;15.80;101856.00;;;;5088681;28;20961;-80
2021/03/25 08:29:21;;;;;;;23.40;14.95;;;;;16.00;101855.00;;;;5078086;28;20247;-79
2021/03/25 08:32:00;;;;;;;24.38;14.38;;;;;16.10;101855.00;;;;5087226;28;20206;-79
2021/03/25 08:34:44;;;;;;;25.00;13.55;;;;;16.20;101849.00;;;;5082720;28;20198;-79
2021/03/25 08:37:27;;;;;;;21.02;13.55;;;;;16.30;101850.00;;;;5085329;28;20247;-79
2021/03/25 08:39:59;;;;;;;22.23;13.98;;;;;16.40;101848.00;;;;5086674;28;20726;-79
2021/03/25 08:42:32;;;;;;;22.10;14.98;;;;;16.40;101848.00;;;;5088940;28;20226;-79
2021/03/25 08:45:18;;;;;;;21.70;13.23;;;;;16.50;101850.00;;;;5089467;28;20214;-78
2021/03/25 08:47:51;;;;;;;22.40;13.95;;;;;16.60;101844.00;;;;5088783;28;20199;-79
2021/03/25 08:50:42;;;;;;;23.77;14.75;;;;;16.70;101856.00;;;;5082440;28;20198;-79
2021/03/25 08:53:21;;;;;;;21.60;13.70;;;;;16.80;101856.00;;;;5076727;28;20202;-79
2021/03/25 08:55:52;;;;;;;20.95;13.60;;;;;16.90;101854.00;;;;5087505;28;20210;-78
2021/03/25 08:58:22;;;;;;;25.13;15.13;;;;;16.90;101858.00;;;;5087689;28;20202;-78
2021/03/25 09:00:51;;;;;;;24.75;14.70;;;;;17.00;101859.00;;;;5085458;28;20194;-77
2021/03/25 09:03:24;;;;;;;21.17;13.52;;;;;17.00;101862.00;;;;5088723;28;20221;-79
2021/03/25 09:06:00;;;;;;;23.40;14.43;;;;;17.10;101857.00;;;;5087739;28;20667;-78
2021/03/25 09:08:28;;;;;;;20.05;13.88;;;;;17.10;101853.00;;;;5073961;28;20224;-79
2021/03/25 09:10:58;;;;;;;19.85;13.30;;;;;17.20;101857.00;;;;5083537;28;20198;-79
2021/03/25 09:13:28;;;;;;;19.83;13.75;;;;;17.20;101849.00;;;;5086323;28;20612;-78
2021/03/25 09:15:58;;;;;;;19.52;12.60;;;;;17.30;101864.00;;;;5075421;28;20190;-78
2021/03/25 09:18:27;;;;;;;22.48;13.57;;;;;17.40;101875.00;;;;5072898;28;20202;-79
2021/03/25 09:20:56;;;;;;;19.92;14.18;;;;;17.50;101865.00;;;;5068047;28;20245;-77
2021/03/25 09:24:11;;;;;;;21.77;14.30;;;;;17.40;101870.00;;;;5074389;28;20234;-78
2021/03/25 09:26:57;;;;;;;16.25;11.70;;;;;17.40;101870.00;;;;5075347;28;20190;-77
2021/03/25 09:29:27;;;;;;;19.40;12.48;;;;;17.50;101862.00;;;;5079867;28;20199;-78
2021/03/25 09:32:33;;;;;;;18.60;12.30;;;;;17.50;101870.00;;;;5083256;28;20206;-78
2021/03/25 09:35:03;;;;;;;18.23;12.52;;;;;17.60;101872.00;;;;5071206;28;20230;-78
2021/03/25 09:37:33;;;;;;;17.90;11.43;;;;;17.60;101870.00;;;;5075734;28;20187;-78
2021/03/25 09:40:29;;;;;;;22.25;13.50;;;;;17.60;101861.00;;;;5078809;28;20213;-78
2021/03/25 09:43:37;;;;;;;16.92;11.30;;;;;17.60;101862.00;;;;5074805;28;20706;-78
2021/03/25 09:46:29;;;;;;;15.90;11.05;;;;;17.70;101859.00;;;;5063983;28;20193;-77
2021/03/25 09:48:57;;;;;;;15.32;10.43;;;;;17.90;101861.00;;;;5070437;28;20219;-79
2021/03/25 09:51:29;;;;;;;16.42;10.07;;;;;17.90;101854.00;;;;5069546;28;20195;-77
2021/03/25 09:53:57;;;;;;;17.88;10.13;;;;;18.00;101856.00;;;;5070988;28;20233;-77
2021/03/25 09:56:35;;;;;;;13.25;9.50;;;;;18.00;101851.00;;;;5080888;28;20198;-77
2021/03/25 09:59:03;;;;;;;16.73;11.55;;;;;18.10;101860.00;;;;5070071;28;20198;-77
2021/03/25 10:01:56;;;;;;;14.68;10.70;;;;;18.00;101858.00;;;;5076100;28;20661;-77
2021/03/25 10:04:40;;;;;;;13.45;8.75;;;;;18.10;101863.00;;;;5081227;28;20198;-78
2021/03/25 10:07:38;;;;;;;14.10;10.43;;;;;18.10;101861.00;;;;5074105;28;20202;-78
2021/03/25 10:10:34;;;;;;;14.30;9.77;;;;;18.10;101864.00;;;;5080417;28;20238;-77
2021/03/25 10:13:34;;;;;;;15.10;9.05;;;;;18.00;101864.00;;;;5079072;28;20621;-77
2021/03/25 10:16:03;;;;;;;14.20;8.93;;;;;18.10;101865.00;;;;5074715;28;20191;-78
2021/03/25 10:18:51;;;;;;;13.45;9.90;;;;;18.00;101870.00;;;;5083902;28;20197;-78
2021/03/25 10:21:40;;;;;;;13.25;9.15;;;;;18.10;101873.00;;;;5077751;28;20214;-79
2021/03/25 10:24:17;;;;;;;12.25;8.73;;;;;18.10;101864.00;;;;5090921;28;20198;-77
2021/03/25 10:26:46;;;;;;;15.50;10.18;;;;;18.10;101862.00;;;;5089508;28;20233;-77
2021/03/25 10:29:18;;;;;;;12.70;8.98;;;;;18.10;101870.00;;;;5090871;28;20194;-76
2021/03/25 10:31:48;;;;;;;14.70;9.70;;;;;18.00;101863.00;;;;5088492;28;20319;-76
2021/03/25 10:34:19;;;;;;;15.57;10.32;;;;;18.00;101870.00;;;;5089969;28;20198;-76
2021/03/25 10:36:50;;;;;;;14.40;9.65;;;;;17.90;101859.00;;;;5090620;28;20206;-75
2021/03/25 10:39:24;;;;;;;13.50;10.23;;;;;17.90;101858.00;;;;5083168;28;20215;-76
2021/03/25 10:41:52;;;;;;;14.85;9.65;;;;;17.90;101851.00;;;;5089032;28;20554;-76
2021/03/25 10:44:27;;;;;;;14.40;9.60;;;;;17.80;101855.00;;;;5088270;28;20354;-76
2021/03/25 10:46:56;;;;;;;14.93;9.77;;;;;17.90;101860.00;;;;5088821;28;20189;-76
2021/03/25 10:49:27;;;;;;;11.40;8.48;;;;;17.80;101856.00;;;;5088906;28;20222;-76
2021/03/25 10:51:55;;;;;;;10.40;8.50;;;;;17.80;101860.00;;;;5088631;28;20213;-76
2021/03/25 10:54:28;;;;;;;10.40;7.55;;;;;17.70;101857.00;;;;5073046;28;20194;-76
2021/03/25 10:56:58;;;;;;;11.57;6.63;;;;;17.70;101855.00;;;;5079889;28;20194;-76
2021/03/25 10:59:26;;;;;;;8.50;6.15;;;;;17.70;101860.00;;;;5086718;28;20221;-75
2021/03/25 11:01:56;;;;;;;7.18;5.30;;;;;17.60;101862.00;;;;5091041;28;20584;-76
2021/03/25 11:04:25;;;;;;;7.90;5.68;;;;;17.60;101864.00;;;;5090619;28;20664;-76
2021/03/25 11:06:52;;;;;;;7.18;5.03;;;;;17.70;101849.00;;;;5090210;28;20235;-75
2021/03/25 11:09:21;;;;;;;5.43;3.80;;;;;17.70;101849.00;;;;5088839;28;20202;-75
2021/03/25 11:11:52;;;;;;;5.35;3.67;;;;;17.70;101846.00;;;;5078954;28;20217;-75
2021/03/25 11:14:29;;;;;;;5.38;4.18;;;;;17.80;101847.00;;;;5090629;28;20229;-74
2021/03/25 11:17:02;;;;;;;5.72;4.20;;;;;17.90;101851.00;;;;5088929;28;20263;-74
2021/03/25 11:19:31;;;;;;;5.63;4.28;;;;;17.90;101851.00;;;;5088670;28;20289;-74
2021/03/25 11:21:59;;;;;;;4.22;3.60;;;;;18.00;101852.00;;;;5089279;28;20198;-74
2021/03/25 11:24:27;;;;;;;4.85;3.47;;;;;18.00;101850.00;;;;5072292;28;20736;-74
2021/03/25 11:26:56;;;;;;;5.47;4.25;;;;;18.00;101847.00;;;;5079986;28;20560;-74
2021/03/25 11:29:23;;;;;;;6.00;4.90;;;;;18.00;101845.00;;;;5088623;28;20202;-74
2021/03/25 11:32:11;;;;;;;5.82;4.30;;;;;17.80;101858.00;;;;5090139;28;20198;-77
2021/03/25 11:34:41;;;;;;;5.82;4.85;;;;;17.90;101853.00;;;;5087909;28;20631;-75
2021/03/25 11:37:17;;;;;;;8.73;5.50;;;;;17.70;101853.00;;;;5088576;28;20187;-74
2021/03/25 11:39:57;;;;;;;8.75;6.13;;;;;17.70;101871.00;;;;5089175;28;20216;-75
2021/03/25 11:42:26;;;;;;;8.98;6.53;;;;;17.80;101869.00;;;;5086330;28;20210;-75
2021/03/25 11:44:53;;;;;;;9.30;5.82;;;;;17.70;101861.00;;;;5082142;28;20233;-74
2021/03/25 11:47:31;;;;;;;14.00;7.85;;;;;17.70;101871.00;;;;5080541;28;20203;-74
2021/03/25 11:49:58;;;;;;;11.70;7.53;;;;;17.70;101859.00;;;;5076924;28;20233;-74
2021/03/25 11:52:26;;;;;;;11.88;7.63;;;;;17.70;101854.00;;;;5087221;28;20209;-74
2021/03/25 11:55:00;;;;;;;10.80;7.18;;;;;17.60;101869.00;;;;5071463;28;20195;-74
2021/03/25 11:57:30;;;;;;;10.73;7.00;;;;;17.60;101861.00;;;;5070039;28;20202;-74
2021/03/25 12:00:09;;;;;;;10.35;6.45;;;;;17.50;101859.00;;;;5081182;28;20971;-74
2021/03/25 12:02:36;;;;;;;13.23;8.45;;;;;17.60;101862.00;;;;5089459;28;20218;-75
2021/03/25 12:05:24;;;;;;;14.52;9.60;;;;;17.40;101864.00;;;;5089163;28;20862;-74
2021/03/25 12:08:01;;;;;;;16.73;9.52;;;;;17.40;101874.00;;;;5066707;28;20194;-75
2021/03/25 12:10:28;;;;;;;13.85;8.15;;;;;17.40;101873.00;;;;5078270;28;20194;-75
2021/03/25 12:12:54;;;;;;;14.15;9.15;;;;;17.40;101870.00;;;;5089707;28;20198;-76
2021/03/25 12:15:21;;;;;;;17.33;9.45;;;;;17.40;101874.00;;;;5087867;28;20198;-76
2021/03/25 12:17:52;;;;;;;14.57;8.98;;;;;17.20;101869.00;;;;5087129;28;20205;-75
2021/03/25 12:20:23;;;;;;;12.23;7.95;;;;;17.20;101853.00;;;;5073352;28;20202;-76
2021/03/25 12:22:57;;;;;;;9.82;6.78;;;;;17.20;101859.00;;;;5087229;28;20229;-74
2021/03/25 12:25:24;;;;;;;14.13;7.97;;;;;17.20;101860.00;;;;5085908;28;20198;-74